PST,Max TemperatureF,Mean TemperatureF,Min TemperatureF,Max Dew PointF,MeanDew PointF,Min DewpointF,Max Humidity, Mean Humidity, Min Humidity, Max Sea Level PressureIn, Mean Sea Level PressureIn, Min Sea Level PressureIn, Max VisibilityMiles, Mean VisibilityMiles, Min VisibilityMiles, Max Wind SpeedMPH, Mean Wind SpeedMPH, Max Gust SpeedMPH,PrecipitationIn, CloudCover, Events, WindDirDegrees
2012-11-1,56,53,49,54,51,47,94,90,77,29.96,29.82,29.67,10,4,1,13,4,17,0.38,8,Rain,146
2012-11-2,57,55,52,52,49,47,94,85,67,29.98,29.93,29.88,8,6,2,15,7,24,0.13,8,Rain,143
2012-11-3,56,55,53,55,52,50,100,93,88,30.14,30.01,29.90,8,2,0,17,6,28,0.40,8,Fog-Rain,179
2012-11-4,59,55,50,57,53,48,97,92,86,30.32,30.17,30.11,9,2,0,21,8,33,1.17,8,Fog-Rain,165
2012-11-5,56,49,41,50,46,39,100,92,77,30.41,30.33,30.15,5,2,0,7,2,8,0.00,3,Fog,14
2012-11-6,55,50,45,52,48,42,94,88,73,30.13,29.98,29.90,6,3,0,18,6,30,0.26,8,Fog-Rain,203
2012-11-7,53,46,39,45,40,37,93,86,61,30.13,30.06,29.91,8,4,0,10,3,14,0.20,6,Fog-Rain,89
2012-11-8,52,42,31,40,36,29,93,76,42,29.90,29.86,29.83,8,7,6,18,6,24,T,2,Rain,41
2012-11-9,51,40,28,36,30,26,93,79,43,29.96,29.89,29.86,8,6,2,10,3,12,0.00,1,,67
2012-11-10,48,38,27,31,28,22,89,72,32,30.17,30.09,29.97,7,7,5,9,4,10,0.00,4,,85
2012-11-11,49,42,34,47,41,30,100,88,64,30.17,30.01,29.91,9,3,1,22,9,37,0.96,8,Rain,120
2012-11-12,54,51,47,52,50,32,100,96,38,30.17,30.09,29.97,7,4,0,12,3,16,0.05,8,Fog-Rain,197
2012-11-13,49,48,47,49,48,46,100,99,93,30.18,30.14,30.09,7,3,0,10,3,15,1.39,8,Fog-Rain,81
2012-11-14,53,44,34,48,43,35,100,98,77,30.31,30.27,30.18,6,2,0,7,1,9,T,3,Fog-Rain,27
2012-11-15,53,42,30,45,36,30,100,98,68,30.25,30.06,29.92,6,2,0,9,2,10,0.00,3,Fog,74
2012-11-16,54,47,39,52,43,39,100,88,63,29.91,29.77,29.56,6,5,4,18,6,33,0.01,7,Rain,130
2012-11-17,55,49,43,54,46,32,100,97,54,29.60,29.49,29.39,7,3,1,20,10,38,1.37,8,Rain,174
2012-11-18,51,48,44,52,47,32,100,97,44,29.63,29.51,29.29,7,3,1,24,10,47,1.31,8,Rain,151
2012-11-19,52,49,45,49,46,32,100,92,34,29.62,29.43,29.29,7,4,1,17,6,24,0.65,8,Rain,157
2012-11-20,49,44,39,46,43,37,100,91,73,29.61,29.52,29.37,7,3,0,25,7,37,1.49,7,Fog-Rain-Thunderstorm,172
2012-11-21,47,42,36,43,40,36,100,94,81,30.25,29.82,29.51,8,4,1,10,3,22,0.86,7,Rain,116
2012-11-22,50,44,37,42,39,36,97,82,61,30.29,30.20,30.05,8,7,3,21,8,33,0.06,7,Rain,109
2012-11-23,52,44,36,50,46,37,100,96,88,30.15,30.04,29.99,5,2,0,22,5,35,0.62,8,Fog-Rain,181
2012-11-24,50,41,32,45,39,33,100,96,80,30.29,30.23,30.15,7,2,0,7,2,10,0.03,5,Fog-Rain,68
2012-11-25,49,40,31,41,35,32,100,92,66,30.34,30.29,30.20,7,5,1,8,3,10,T,3,Rain,48
2012-11-26,49,40,31,36,34,32,93,81,61,30.17,30.07,30.01,7,6,6,13,6,16,0.00,0,,65
2012-11-27,53,44,35,44,38,33,93,80,62,30.04,29.96,29.86,7,6,5,12,5,15,0.00,7,,72
2012-11-28,54,48,41,50,46,37,96,87,72,29.84,29.57,29.48,7,4,1,21,9,40,0.24,7,Rain,136
2012-11-29,54,52,49,50,48,46,96,91,70,29.55,29.45,29.33,7,3,0,24,11,41,1.01,8,Fog-Rain,161
2012-11-30,53,51,48,52,48,46,100,93,85,29.33,29.29,29.24,8,3,1,22,11,36,1.25,8,Rain,169